Time;durP1;ratioP1;P1;durP2;ratioP2;P2;SDS_P1;SDS_P2;PMS_P1;PMS_P2;Temp;Humidity;BMP_temperature;BMP_pressure;BME280_temperature;BME280_humidity;BME280_pressure;Samples;Min_cycle;Max_cycle;Signal;HPM_P1;HPM_P2
2023/04/04 00:02:15;;;;;;;2.08;1.88;;;;;;;;;;5092611;28;20926;-79
2023/04/04 00:04:41;;;;;;;2.50;2.13;;;;;;;;;;5092658;28;20466;-79
2023/04/04 00:07:07;;;;;;;2.47;2.08;;;;;;;;;;5092431;28;20374;-79
2023/04/04 00:09:33;;;;;;;4.97;2.25;;;;;;;;;;5074277;28;20926;-79
2023/04/04 00:11:59;;;;;;;3.55;2.30;;;;;;;;;;5092285;28;20469;-79
2023/04/04 00:14:26;;;;;;;3.22;2.05;;;;;;;;;;5092415;28;20716;-79
2023/04/04 00:16:53;;;;;;;5.10;2.50;;;;;;;;;;5092166;28;20402;-79
2023/04/04 00:19:19;;;;;;;55.17;31.25;;;;;;;;;;5092201;28;20385;-80
2023/04/04 00:21:45;;;;;;;5.00;4.13;;;;;;;;;;5090513;28;20386;-79
2023/04/04 00:24:11;;;;;;;62.75;32.55;;;;;;;;;;5092050;28;20378;-79
2023/04/04 00:26:37;;;;;;;2.78;2.40;;;;;;;;;;5092247;28;20457;-79
2023/04/04 00:29:03;;;;;;;3.30;2.33;;;;;;;;;;5092105;28;20382;-79
2023/04/04 00:31:29;;;;;;;3.13;2.35;;;;;;;;;;5091920;28;20465;-79
2023/04/04 00:33:55;;;;;;;2.45;2.25;;;;;;;;;;5077727;28;20411;-79
2023/04/04 00:36:22;;;;;;;2.53;2.10;;;;;;;;;;5092039;28;20926;-79
2023/04/04 00:38:48;;;;;;;2.40;1.90;;;;;;;;;;5078178;28;20402;-79
2023/04/04 00:41:14;;;;;;;2.47;2.22;;;;;;;;;;5090501;28;20851;-79
2023/04/04 00:43:41;;;;;;;2.47;2.10;;;;;;;;;;5075359;28;20385;-79
2023/04/04 00:46:07;;;;;;;2.85;2.30;;;;;;;;;;5091815;28;20377;-79
2023/04/04 00:48:33;;;;;;;2.53;2.10;;;;;;;;;;5091857;28;20378;-79
2023/04/04 00:51:00;;;;;;;2.67;2.43;;;;;;;;;;5086502;28;20406;-79
2023/04/04 00:53:26;;;;;;;3.00;2.53;;;;;;;;;;5090080;28;20388;-80
2023/04/04 00:55:52;;;;;;;3.00;2.47;;;;;;;;;;5076894;28;20880;-79
2023/04/04 00:58:18;;;;;;;3.03;2.42;;;;;;;;;;5087780;28;20410;-79
2023/04/04 01:00:45;;;;;;;2.72;2.47;;;;;;;;;;5091737;28;20413;-80
2023/04/04 01:03:11;;;;;;;3.40;2.30;;;;;;;;;;5090149;28;20374;-80
2023/04/04 01:05:38;;;;;;;3.30;2.38;;;;;;;;;;5095150;28;20431;-79
2023/04/04 01:08:04;;;;;;;4.07;2.70;;;;;;;;;;5095372;28;20847;-79
2023/04/04 01:10:32;;;;;;;2.60;2.20;;;;;;;;;;5103379;28;20382;-78
2023/04/04 01:12:58;;;;;;;3.50;2.50;;;;;;;;;;5104006;28;20742;-79
2023/04/04 01:15:24;;;;;;;2.90;2.30;;;;;;;;;;5085621;28;20382;-79
2023/04/04 01:17:51;;;;;;;2.92;2.28;;;;;;;;;;5091802;28;20402;-79
2023/04/04 01:20:20;;;;;;;2.75;2.30;;;;;;;;;;5091690;28;20438;-79
2023/04/04 01:22:47;;;;;;;3.53;2.42;;;;;;;;;;5091375;28;20385;-79
2023/04/04 01:25:14;;;;;;;2.47;2.10;;;;;;;;;;5091389;28;20389;-79
2023/04/04 01:27:40;;;;;;;3.50;2.28;;;;;;;;;;5091197;28;20377;-79
2023/04/04 01:30:07;;;;;;;2.55;2.35;;;;;;;;;;5091414;28;20455;-79
2023/04/04 01:32:37;;;;;;;3.38;2.20;;;;;;;;;;5090801;28;20421;-79
2023/04/04 01:35:20;;;;;;;3.42;2.55;;;;;;;;;;5091270;28;20422;-79
2023/04/04 01:38:04;;;;;;;3.35;2.35;;;;;;;;;;5091037;28;20546;-79
2023/04/04 01:40:36;;;;;;;3.42;2.50;;;;;;;;;;5091165;28;20426;-79
2023/04/04 01:43:02;;;;;;;3.77;2.43;;;;;;;;;;5072464;28;20426;-80
2023/04/04 01:45:28;;;;;;;2.78;2.00;;;;;;;;;;5091205;28;20857;-79
2023/04/04 01:47:55;;;;;;;3.13;2.10;;;;;;;;;;5091054;28;20382;-79
2023/04/04 01:50:21;;;;;;;2.40;2.20;;;;;;;;;;5083258;28;20389;-79
2023/04/04 01:52:48;;;;;;;3.33;2.20;;;;;;;;;;5065932;28;20407;-79
2023/04/04 01:55:15;;;;;;;2.97;2.10;;;;;;;;;;5073144;28;20387;-79
2023/04/04 01:57:41;;;;;;;2.90;2.20;;;;;;;;;;5080328;28;20429;-79
2023/04/04 02:00:07;;;;;;;2.63;2.13;;;;;;;;;;5071454;28;20776;-80
2023/04/04 02:02:33;;;;;;;2.72;2.08;;;;;;;;;;5073270;28;20379;-80
2023/04/04 02:04:59;;;;;;;2.83;2.30;;;;;;;;;;5063274;28;20419;-79
2023/04/04 02:07:25;;;;;;;2.75;2.05;;;;;;;;;;5065677;28;20931;-80
2023/04/04 02:09:52;;;;;;;3.88;2.42;;;;;;;;;;5059579;28;20417;-79
2023/04/04 02:12:18;;;;;;;2.83;2.50;;;;;;;;;;5061910;28;20384;-78
2023/04/04 02:14:44;;;;;;;2.90;2.22;;;;;;;;;;5056993;28;20400;-80
2023/04/04 02:17:10;;;;;;;2.60;2.30;;;;;;;;;;5059161;28;20404;-78
2023/04/04 02:19:37;;;;;;;2.85;2.45;;;;;;;;;;5068144;28;20375;-78
2023/04/04 02:22:03;;;;;;;4.07;2.63;;;;;;;;;;5056881;28;20396;-79
2023/04/04 02:24:29;;;;;;;2.45;2.15;;;;;;;;;;5060608;28;20878;-79
2023/04/04 02:26:55;;;;;;;2.72;2.13;;;;;;;;;;5053868;28;20464;-79
2023/04/04 02:29:21;;;;;;;2.60;2.30;;;;;;;;;;5052967;28;20392;-79
2023/04/04 02:31:47;;;;;;;3.33;2.43;;;;;;;;;;5053013;28;20937;-79
2023/04/04 02:34:13;;;;;;;4.07;2.35;;;;;;;;;;5071698;28;20388;-79
2023/04/04 02:36:39;;;;;;;2.80;2.20;;;;;;;;;;5073299;28;20403;-80
2023/04/04 02:39:06;;;;;;;2.83;2.50;;;;;;;;;;5073934;28;20473;-78
2023/04/04 02:41:32;;;;;;;3.10;2.07;;;;;;;;;;5075531;28;20384;-79
2023/04/04 02:43:58;;;;;;;2.83;2.33;;;;;;;;;;5073870;28;20380;-79
2023/04/04 02:46:24;;;;;;;3.00;2.20;;;;;;;;;;5073857;28;20391;-79
2023/04/04 02:48:50;;;;;;;2.95;2.30;;;;;;;;;;5073349;28;20411;-79
2023/04/04 02:51:16;;;;;;;3.53;2.28;;;;;;;;;;5073655;28;20865;-79
2023/04/04 02:53:42;;;;;;;3.95;2.20;;;;;;;;;;5073758;28;20386;-79
2023/04/04 02:56:08;;;;;;;4.03;2.47;;;;;;;;;;5075131;28;20507;-79
2023/04/04 02:58:34;;;;;;;2.73;2.07;;;;;;;;;;5073655;28;20910;-79
2023/04/04 03:01:00;;;;;;;3.08;2.40;;;;;;;;;;5073655;28;20383;-79
2023/04/04 03:03:26;;;;;;;4.32;2.75;;;;;;;;;;5073529;28;20868;-79
2023/04/04 03:05:52;;;;;;;3.70;3.05;;;;;;;;;;5073273;28;20772;-79
2023/04/04 03:08:18;;;;;;;7.68;5.75;;;;;;;;;;5073288;28;20418;-79
2023/04/04 03:10:45;;;;;;;4.68;3.20;;;;;;;;;;5080923;28;20383;-79
2023/04/04 03:13:11;;;;;;;3.45;2.70;;;;;;;;;;5073388;28;20387;-79
2023/04/04 03:15:39;;;;;;;29.13;13.38;;;;;;;;;;5073267;28;20978;-79
2023/04/04 03:18:05;;;;;;;14.18;8.82;;;;;;;;;;5073260;28;20539;-79
2023/04/04 03:20:31;;;;;;;15.18;9.38;;;;;;;;;;5073052;28;20794;-79
2023/04/04 03:22:57;;;;;;;12.82;8.23;;;;;;;;;;5072817;28;20384;-79
2023/04/04 03:25:24;;;;;;;20.70;10.65;;;;;;;;;;5066951;28;20403;-79
2023/04/04 03:27:50;;;;;;;4.10;3.10;;;;;;;;;;5073143;28;20429;-79
2023/04/04 03:30:16;;;;;;;9.65;6.45;;;;;;;;;;5073107;28;20449;-80
2023/04/04 03:32:43;;;;;;;22.40;11.95;;;;;;;;;;5083731;28;20779;-79
2023/04/04 03:35:10;;;;;;;129.65;55.17;;;;;;;;;;5093166;28;20366;-79
2023/04/04 03:37:36;;;;;;;30.15;16.13;;;;;;;;;;5093029;28;20402;-79
2023/04/04 03:40:02;;;;;;;8.43;6.22;;;;;;;;;;5093106;28;20401;-79
2023/04/04 03:42:32;;;;;;;77.07;32.88;;;;;;;;;;5075377;28;20380;-79
2023/04/04 03:44:58;;;;;;;17.85;10.20;;;;;;;;;;5092910;28;20851;-79
2023/04/04 03:47:24;;;;;;;25.00;13.27;;;;;;;;;;5092872;28;20374;-79
2023/04/04 03:49:51;;;;;;;25.00;13.52;;;;;;;;;;5092957;28;20440;-79
2023/04/04 03:52:17;;;;;;;14.10;7.75;;;;;;;;;;5092762;28;20472;-79
2023/04/04 03:54:43;;;;;;;29.15;13.70;;;;;;;;;;5091880;28;20409;-79
2023/04/04 03:57:09;;;;;;;33.00;15.80;;;;;;;;;;5061472;28;20402;-79
2023/04/04 03:59:36;;;;;;;19.13;10.02;;;;;;;;;;5079286;28;20431;-79
2023/04/04 04:02:02;;;;;;;31.63;16.67;;;;;;;;;;5067354;28;20377;-79
2023/04/04 04:04:28;;;;;;;38.15;19.42;;;;;;;;;;5062476;28;20379;-80
2023/04/04 04:06:54;;;;;;;12.57;8.60;;;;;;;;;;5080171;28;20392;-80
2023/04/04 04:09:20;;;;;;;4.00;2.80;;;;;;;;;;5072328;28;20965;-80
2023/04/04 04:11:47;;;;;;;3.53;2.92;;;;;;;;;;5067179;28;20387;-80
2023/04/04 04:14:13;;;;;;;3.50;2.63;;;;;;;;;;5064584;28;20445;-80
2023/04/04 04:16:40;;;;;;;3.55;2.83;;;;;;;;;;5074711;28;20411;-80
2023/04/04 04:19:06;;;;;;;3.15;2.50;;;;;;;;;;5071506;28;20392;-80
2023/04/04 04:21:32;;;;;;;3.85;2.72;;;;;;;;;;5072216;28;20382;-79
2023/04/04 04:23:58;;;;;;;2.90;2.65;;;;;;;;;;5070870;28;20458;-80
2023/04/04 04:26:25;;;;;;;3.13;2.60;;;;;;;;;;5073851;28;20433;-80
2023/04/04 04:28:51;;;;;;;3.63;2.60;;;;;;;;;;5071573;28;20886;-80
2023/04/04 04:31:16;;;;;;;3.63;3.25;;;;;;;;;;5078502;28;20498;-79
2023/04/04 04:33:42;;;;;;;4.13;3.50;;;;;;;;;;5088159;28;21004;-80
2023/04/04 04:36:09;;;;;;;3.50;3.20;;;;;;;;;;5075030;28;20411;-80
2023/04/04 04:38:35;;;;;;;4.50;2.72;;;;;;;;;;5072624;28;20868;-80
2023/04/04 04:41:01;;;;;;;3.90;2.78;;;;;;;;;;5069794;28;20376;-80
2023/04/04 04:43:27;;;;;;;2.70;2.40;;;;;;;;;;5071869;28;20372;-80
2023/04/04 04:45:53;;;;;;;3.10;2.58;;;;;;;;;;5072422;28;20733;-80
2023/04/04 04:48:19;;;;;;;4.80;3.03;;;;;;;;;;5072260;28;20940;-80
2023/04/04 04:50:46;;;;;;;3.17;2.60;;;;;;;;;;5070274;28;20382;-80
2023/04/04 04:53:12;;;;;;;3.33;2.60;;;;;;;;;;5079790;28;20437;-80
2023/04/04 04:55:38;;;;;;;3.63;2.83;;;;;;;;;;5072020;28;20388;-80
2023/04/04 04:58:05;;;;;;;2.70;2.50;;;;;;;;;;5072546;28;20412;-80
2023/04/04 05:00:31;;;;;;;4.25;2.70;;;;;;;;;;5071542;28;20382;-81
2023/04/04 05:02:59;;;;;;;4.07;2.85;;;;;;;;;;5074666;28;20379;-80
2023/04/04 05:05:25;;;;;;;3.03;2.72;;;;;;;;;;5072555;28;20498;-80
2023/04/04 05:07:51;;;;;;;4.03;2.90;;;;;;;;;;5071480;28;20380;-80
2023/04/04 05:10:17;;;;;;;4.90;2.70;;;;;;;;;;5071257;28;20396;-80
2023/04/04 05:12:43;;;;;;;3.30;2.97;;;;;;;;;;5071718;28;20419;-80
2023/04/04 05:15:10;;;;;;;3.72;3.17;;;;;;;;;;5071523;28;20391;-80
2023/04/04 05:17:36;;;;;;;3.88;3.35;;;;;;;;;;5071315;28;20410;-81
2023/04/04 05:20:02;;;;;;;3.92;3.38;;;;;;;;;;5071400;28;20380;-80
2023/04/04 05:22:28;;;;;;;5.55;3.33;;;;;;;;;;5071108;28;20384;-80
2023/04/04 05:24:54;;;;;;;4.72;3.38;;;;;;;;;;5071263;28;20372;-80
2023/04/04 05:27:20;;;;;;;4.10;3.22;;;;;;;;;;5070612;28;20391;-80
2023/04/04 05:29:47;;;;;;;4.35;2.92;;;;;;;;;;5071253;28;20382;-80
2023/04/04 05:32:13;;;;;;;4.30;3.58;;;;;;;;;;5058471;28;20409;-80
2023/04/04 05:34:39;;;;;;;4.70;3.80;;;;;;;;;;5056089;28;20477;-80
2023/04/04 05:37:05;;;;;;;4.13;3.20;;;;;;;;;;5070864;28;20473;-80
2023/04/04 05:39:31;;;;;;;5.93;4.93;;;;;;;;;;5070675;28;20384;-80
2023/04/04 05:41:57;;;;;;;4.20;3.20;;;;;;;;;;5070707;28;20372;-79
2023/04/04 05:44:23;;;;;;;3.57;3.20;;;;;;;;;;5070639;28;21042;-79
2023/04/04 05:46:51;;;;;;;3.67;3.28;;;;;;;;;;5070433;28;20444;-80
2023/04/04 05:49:17;;;;;;;3.85;3.40;;;;;;;;;;5070228;28;20434;-80
2023/04/04 05:51:43;;;;;;;3.85;3.25;;;;;;;;;;5070716;28;20383;-80
2023/04/04 05:54:09;;;;;;;5.00;3.38;;;;;;;;;;5070763;28;20386;-80
2023/04/04 05:56:35;;;;;;;3.90;3.17;;;;;;;;;;5068085;28;20434;-80
2023/04/04 05:59:01;;;;;;;4.50;3.45;;;;;;;;;;5070592;28;20407;-80
2023/04/04 06:01:28;;;;;;;3.40;3.10;;;;;;;;;;5069991;28;20899;-80
2023/04/04 06:03:55;;;;;;;4.03;3.15;;;;;;;;;;5070735;28;20379;-80
2023/04/04 06:06:21;;;;;;;3.30;3.00;;;;;;;;;;5052599;28;20918;-80
2023/04/04 06:08:47;;;;;;;3.58;3.28;;;;;;;;;;5070180;28;20749;-80
2023/04/04 06:11:13;;;;;;;4.10;3.33;;;;;;;;;;5070660;28;20399;-80
2023/04/04 06:13:39;;;;;;;4.60;3.42;;;;;;;;;;5070499;28;20392;-80
2023/04/04 06:16:05;;;;;;;4.43;3.40;;;;;;;;;;5072792;28;20526;-80
2023/04/04 06:18:31;;;;;;;3.58;2.88;;;;;;;;;;5070127;28;20379;-80
2023/04/04 06:20:57;;;;;;;3.38;3.08;;;;;;;;;;5069708;28;20930;-80
2023/04/04 06:23:23;;;;;;;3.83;2.92;;;;;;;;;;5052774;28;20380;-80
2023/04/04 06:25:49;;;;;;;4.40;3.10;;;;;;;;;;5070510;28;20371;-80
2023/04/04 06:28:16;;;;;;;4.80;3.30;;;;;;;;;;5070024;28;20391;-79
2023/04/04 06:30:43;;;;;;;4.30;2.83;;;;;;;;;;5070494;28;20380;-80
2023/04/04 06:33:09;;;;;;;3.35;2.90;;;;;;;;;;5070408;28;20408;-80
2023/04/04 06:35:36;;;;;;;3.28;2.95;;;;;;;;;;5065819;28;20391;-80
2023/04/04 06:38:04;;;;;;;3.30;3.00;;;;;;;;;;5073062;28;20396;-80
2023/04/04 06:40:30;;;;;;;3.97;2.72;;;;;;;;;;5073124;28;20775;-80
2023/04/04 06:42:57;;;;;;;3.45;2.70;;;;;;;;;;5073827;28;20380;-79
2023/04/04 06:45:23;;;;;;;3.15;2.85;;;;;;;;;;5073980;28;20380;-80
2023/04/04 06:47:52;;;;;;;3.03;2.60;;;;;;;;;;5073882;28;20807;-80
2023/04/04 06:50:18;;;;;;;3.10;2.80;;;;;;;;;;5073919;28;20406;-80
2023/04/04 06:52:44;;;;;;;3.78;2.85;;;;;;;;;;5073739;28;20848;-80
2023/04/04 06:55:10;;;;;;;3.67;2.80;;;;;;;;;;5073692;28;20394;-80
2023/04/04 06:57:37;;;;;;;4.57;2.80;;;;;;;;;;5073735;28;20396;-80
2023/04/04 07:00:03;;;;;;;3.60;3.20;;;;;;;;;;5073195;28;20382;-80
2023/04/04 07:02:30;;;;;;;3.58;2.88;;;;;;;;;;5073642;28;20379;-80
2023/04/04 07:04:56;;;;;;;3.92;3.03;;;;;;;;;;5073491;28;20372;-80
2023/04/04 07:07:22;;;;;;;8.00;6.37;;;;;;;;;;5072318;28;20463;-80
2023/04/04 07:09:48;;;;;;;13.80;8.38;;;;;;;;;;5073534;28;20383;-80
2023/04/04 07:12:14;;;;;;;3.73;3.20;;;;;;;;;;5073244;28;20418;-80
2023/04/04 07:14:40;;;;;;;3.30;2.88;;;;;;;;;;5079689;28;20407;-79
2023/04/04 07:17:06;;;;;;;4.07;3.30;;;;;;;;;;5073215;28;20462;-80
2023/04/04 07:19:32;;;;;;;3.72;3.00;;;;;;;;;;5073147;28;20375;-80
2023/04/04 07:21:58;;;;;;;3.70;2.90;;;;;;;;;;5073066;28;20368;-80
2023/04/04 07:24:24;;;;;;;3.75;3.08;;;;;;;;;;5073282;28;20379;-80
2023/04/04 07:26:50;;;;;;;4.03;3.03;;;;;;;;;;5064944;28;20461;-80
2023/04/04 07:29:16;;;;;;;3.38;3.08;;;;;;;;;;5073038;28;20415;-80
2023/04/04 07:31:42;;;;;;;7.93;3.40;;;;;;;;;;5075485;28;20379;-79
2023/04/04 07:34:08;;;;;;;4.10;3.22;;;;;;;;;;5093234;28;20731;-79
2023/04/04 07:36:34;;;;;;;3.87;3.33;;;;;;;;;;5083902;28;20402;-80
2023/04/04 07:39:00;;;;;;;3.80;3.40;;;;;;;;;;5070177;28;20401;-80
2023/04/04 07:41:26;;;;;;;7.75;7.05;;;;;;;;;;5089277;28;20378;-79
2023/04/04 07:43:52;;;;;;;4.00;2.90;;;;;;;;;;5079711;28;20381;-79
2023/04/04 07:46:19;;;;;;;4.38;3.75;;;;;;;;;;5087689;28;20384;-80
2023/04/04 07:48:45;;;;;;;4.65;3.20;;;;;;;;;;5085252;28;20901;-79
2023/04/04 07:51:11;;;;;;;3.33;2.80;;;;;;;;;;5092834;28;20417;-79
2023/04/04 07:53:37;;;;;;;3.17;2.88;;;;;;;;;;5094278;28;20431;-79
2023/04/04 07:56:05;;;;;;;4.03;3.20;;;;;;;;;;5089633;28;20371;-79
2023/04/04 07:58:35;;;;;;;3.28;2.97;;;;;;;;;;5096087;28;20850;-79
2023/04/04 08:01:02;;;;;;;4.28;3.00;;;;;;;;;;5095737;28;20419;-79
2023/04/04 08:03:28;;;;;;;4.68;3.60;;;;;;;;;;5073380;28;20856;-79
2023/04/04 08:05:54;;;;;;;4.30;3.70;;;;;;;;;;5073059;28;20775;-79
2023/04/04 08:08:20;;;;;;;3.47;2.63;;;;;;;;;;5072467;28;20375;-79
2023/04/04 08:10:48;;;;;;;3.47;3.05;;;;;;;;;;5072547;28;20380;-80
2023/04/04 08:13:14;;;;;;;3.28;2.97;;;;;;;;;;5071788;28;20416;-79
2023/04/04 08:15:40;;;;;;;4.72;4.28;;;;;;;;;;5072223;28;20379;-79
2023/04/04 08:18:06;;;;;;;6.43;5.75;;;;;;;;;;5071706;28;20407;-79
2023/04/04 08:20:32;;;;;;;4.00;3.20;;;;;;;;;;5083236;28;20461;-79
2023/04/04 08:22:58;;;;;;;3.35;2.70;;;;;;;;;;5072007;28;20903;-80
2023/04/04 08:25:24;;;;;;;4.47;2.83;;;;;;;;;;5071287;28;20447;-80
2023/04/04 08:27:51;;;;;;;3.35;2.33;;;;;;;;;;5071724;28;20449;-79
2023/04/04 08:30:17;;;;;;;3.28;2.78;;;;;;;;;;5072212;28;20383;-79
2023/04/04 08:32:44;;;;;;;3.13;2.50;;;;;;;;;;5070724;28;20433;-79
2023/04/04 08:35:11;;;;;;;3.10;2.75;;;;;;;;;;5071781;28;20486;-79
2023/04/04 08:37:38;;;;;;;3.10;2.63;;;;;;;;;;5071315;28;20407;-80
2023/04/04 08:40:05;;;;;;;4.18;2.78;;;;;;;;;;5072539;28;20938;-79
2023/04/04 08:42:34;;;;;;;2.80;2.60;;;;;;;;;;5074378;28;20383;-79
2023/04/04 08:45:02;;;;;;;2.85;2.58;;;;;;;;;;5071682;28;20394;-80
2023/04/04 08:47:29;;;;;;;3.60;2.80;;;;;;;;;;5071739;28;20749;-80
2023/04/04 08:49:55;;;;;;;3.20;2.70;;;;;;;;;;5071636;28;20388;-79
2023/04/04 08:52:23;;;;;;;2.55;2.35;;;;;;;;;;5071509;28;20390;-79
2023/04/04 08:54:51;;;;;;;2.60;2.40;;;;;;;;;;5071513;28;20427;-80
2023/04/04 08:57:17;;;;;;;2.80;2.53;;;;;;;;;;5071270;28;20944;-79
2023/04/04 08:59:43;;;;;;;3.67;2.50;;;;;;;;;;5071376;28;20392;-79
2023/04/04 09:02:09;;;;;;;3.37;2.20;;;;;;;;;;5071001;28;20372;-80
2023/04/04 09:04:36;;;;;;;3.00;2.30;;;;;;;;;;5053888;28;20907;-80
2023/04/04 09:07:03;;;;;;;2.63;2.30;;;;;;;;;;5071472;28;20429;-79
2023/04/04 09:09:33;;;;;;;2.50;2.20;;;;;;;;;;5071026;28;20466;-80
2023/04/04 09:12:00;;;;;;;2.60;2.33;;;;;;;;;;5070763;28;20420;-79
2023/04/04 09:14:26;;;;;;;2.30;2.10;;;;;;;;;;5067630;28;20388;-79
2023/04/04 09:16:52;;;;;;;2.55;2.28;;;;;;;;;;5071009;28;20900;-80
2023/04/04 09:19:18;;;;;;;2.50;2.05;;;;;;;;;;5071128;28;20380;-80
2023/04/04 09:21:48;;;;;;;4.15;2.15;;;;;;;;;;5070624;28;20378;-80
2023/04/04 09:24:15;;;;;;;3.10;2.20;;;;;;;;;;5070908;28;20376;-80
2023/04/04 09:26:51;;;;;;;4.40;2.63;;;;;;;;;;5071104;28;20391;-80
2023/04/04 09:29:18;;;;;;;2.90;2.33;;;;;;;;;;5070825;28;20391;-80
2023/04/04 09:31:45;;;;;;;3.67;2.50;;;;;;;;;;5070816;28;20774;-79
2023/04/04 09:34:13;;;;;;;2.85;2.50;;;;;;;;;;5070540;28;20441;-80
2023/04/04 09:36:40;;;;;;;2.65;2.03;;;;;;;;;;5071049;28;20440;-80
2023/04/04 09:39:06;;;;;;;2.30;1.92;;;;;;;;;;5067112;28;20388;-80
2023/04/04 09:41:32;;;;;;;3.70;2.17;;;;;;;;;;5070619;28;20379;-79
2023/04/04 09:44:00;;;;;;;2.22;1.88;;;;;;;;;;5070921;28;20433;-80
2023/04/04 09:46:26;;;;;;;2.92;2.15;;;;;;;;;;5071048;28;20386;-80
2023/04/04 09:48:54;;;;;;;2.38;2.10;;;;;;;;;;5070970;28;20380;-80
2023/04/04 09:51:20;;;;;;;2.85;2.45;;;;;;;;;;5070903;28;20384;-80
2023/04/04 09:53:47;;;;;;;2.20;2.00;;;;;;;;;;5070865;28;20832;-80
2023/04/04 09:56:13;;;;;;;2.83;2.08;;;;;;;;;;5070908;28;20410;-80
2023/04/04 09:58:40;;;;;;;2.20;2.00;;;;;;;;;;5059428;28;21013;-80
2023/04/04 10:01:09;;;;;;;2.55;2.10;;;;;;;;;;5070642;28;20384;-80
2023/04/04 10:03:39;;;;;;;2.30;2.10;;;;;;;;;;5070851;28;20384;-80
2023/04/04 10:06:06;;;;;;;2.30;1.70;;;;;;;;;;5061411;28;20375;-80
2023/04/04 10:08:32;;;;;;;2.30;2.00;;;;;;;;;;5070574;28;20725;-80
2023/04/04 10:11:02;;;;;;;2.55;1.75;;;;;;;;;;5070747;28;20382;-80
2023/04/04 10:13:34;;;;;;;2.58;2.00;;;;;;;;;;5070364;28;20429;-80
2023/04/04 10:16:01;;;;;;;2.20;2.00;;;;;;;;;;5075431;28;20379;-80
2023/04/04 10:18:27;;;;;;;2.33;2.10;;;;;;;;;;5074299;28;20376;-80
2023/04/04 10:20:53;;;;;;;3.08;1.95;;;;;;;;;;5074525;28;20445;-80
2023/04/04 10:23:22;;;;;;;2.50;1.90;;;;;;;;;;5074366;28;20761;-80
2023/04/04 10:25:48;;;;;;;3.25;2.03;;;;;;;;;;5074425;28;20410;-81
2023/04/04 10:28:15;;;;;;;2.80;2.17;;;;;;;;;;5074342;28;20860;-80
2023/04/04 10:30:45;;;;;;;2.78;2.10;;;;;;;;;;5074425;28;20380;-80
2023/04/04 10:33:16;;;;;;;2.60;1.88;;;;;;;;;;5074004;28;20490;-80
2023/04/04 10:35:44;;;;;;;7.03;6.32;;;;;;;;;;5074047;28;20390;-80
2023/04/04 10:38:10;;;;;;;2.40;1.92;;;;;;;;;;5074158;28;20772;-80
2023/04/04 10:40:38;;;;;;;2.80;2.20;;;;;;;;;;5076535;28;20383;-81
2023/04/04 10:43:05;;;;;;;2.50;1.95;;;;;;;;;;5078136;28;20455;-80
2023/04/04 10:45:32;;;;;;;2.60;2.20;;;;;;;;;;5077566;28;20468;-80
2023/04/04 10:47:59;;;;;;;3.13;2.08;;;;;;;;;;5056035;28;20431;-80
2023/04/04 10:50:26;;;;;;;2.35;2.13;;;;;;;;;;5073978;28;20385;-80
2023/04/04 10:52:52;;;;;;;2.72;2.10;;;;;;;;;;5055838;28;20873;-80
2023/04/04 10:55:19;;;;;;;2.25;2.05;;;;;;;;;;5073795;28;20383;-80
2023/04/04 10:57:46;;;;;;;2.00;1.83;;;;;;;;;;5064149;28;20893;-80
2023/04/04 11:00:13;;;;;;;2.63;2.10;;;;;;;;;;5073692;28;20387;-80
2023/04/04 11:02:46;;;;;;;2.58;2.17;;;;;;;;;;5073666;28;20372;-80
2023/04/04 11:05:15;;;;;;;2.08;1.88;;;;;;;;;;5073511;28;20375;-80
2023/04/04 11:07:41;;;;;;;2.75;1.85;;;;;;;;;;5073545;28;20387;-80
2023/04/04 11:10:23;;;;;;;2.20;2.00;;;;;;;;;;5073536;28;20437;-80
2023/04/04 11:12:53;;;;;;;2.80;1.65;;;;;;;;;;5072527;28;20426;-81
2023/04/04 11:15:23;;;;;;;2.35;1.70;;;;;;;;;;5077162;28;20792;-80
2023/04/04 11:17:50;;;;;;;2.38;1.90;;;;;;;;;;5073040;28;20983;-81
2023/04/04 11:20:44;;;;;;;2.47;1.90;;;;;;;;;;5073421;28;20376;-80
2023/04/04 11:23:20;;;;;;;2.40;1.92;;;;;;;;;;5071359;28;20741;-80
2023/04/04 11:25:53;;;;;;;3.97;1.95;;;;;;;;;;5073388;28;20375;-80
2023/04/04 11:28:34;;;;;;;2.03;1.80;;;;;;;;;;5074266;28;20471;-80
2023/04/04 11:31:21;;;;;;;3.03;2.13;;;;;;;;;;5074190;28;20387;-80
2023/04/04 11:33:58;;;;;;;2.45;1.75;;;;;;;;;;5066231;28;20470;-78
2023/04/04 11:36:40;;;;;;;2.15;1.63;;;;;;;;;;5078798;28;20408;-79
2023/04/04 11:39:06;;;;;;;2.17;1.80;;;;;;;;;;5082217;28;20380;-80
2023/04/04 11:41:47;;;;;;;2.13;1.80;;;;;;;;;;5081449;28;20377;-79
2023/04/04 11:44:16;;;;;;;3.13;1.90;;;;;;;;;;5073940;28;20860;-80
2023/04/04 11:46:42;;;;;;;2.10;1.90;;;;;;;;;;5069988;28;20411;-80
2023/04/04 11:49:10;;;;;;;2.03;1.73;;;;;;;;;;5073040;28;20407;-80
2023/04/04 11:51:36;;;;;;;3.45;2.00;;;;;;;;;;5073009;28;20741;-80
2023/04/04 11:54:02;;;;;;;1.90;1.75;;;;;;;;;;5072782;28;20384;-80
2023/04/04 11:56:33;;;;;;;4.97;3.53;;;;;;;;;;5072552;28;20498;-80
2023/04/04 11:58:59;;;;;;;14.25;8.60;;;;;;;;;;5072811;28;20857;-79
2023/04/04 12:01:25;;;;;;;2.45;2.13;;;;;;;;;;5071398;28;20441;-80
2023/04/04 12:03:51;;;;;;;5.57;4.30;;;;;;;;;;5071123;28;20449;-80
2023/04/04 12:06:17;;;;;;;7.55;4.85;;;;;;;;;;5072524;28;20462;-79
2023/04/04 12:08:43;;;;;;;23.17;12.38;;;;;;;;;;5072683;28;20938;-79
2023/04/04 12:11:09;;;;;;;5.65;3.42;;;;;;;;;;5072289;28;20402;-80
2023/04/04 12:13:43;;;;;;;15.48;9.80;;;;;;;;;;5072218;28;20960;-80
2023/04/04 12:16:09;;;;;;;2.88;2.55;;;;;;;;;;5072227;28;20380;-80
2023/04/04 12:18:36;;;;;;;3.03;1.75;;;;;;;;;;5074881;28;20372;-80
2023/04/04 12:21:02;;;;;;;2.10;1.90;;;;;;;;;;5072301;28;20444;-80
2023/04/04 12:23:37;;;;;;;3.10;2.30;;;;;;;;;;5072193;28;20380;-79
2023/04/04 12:26:04;;;;;;;2.70;1.90;;;;;;;;;;5072208;28;20367;-80
2023/04/04 12:28:33;;;;;;;3.10;2.30;;;;;;;;;;5072130;28;20387;-81
2023/04/04 12:31:04;;;;;;;2.58;2.10;;;;;;;;;;5070604;28;20415;-80
2023/04/04 12:33:32;;;;;;;2.08;1.80;;;;;;;;;;5087834;28;20882;-79
2023/04/04 12:35:59;;;;;;;2.77;2.30;;;;;;;;;;5059408;28;20528;-80
2023/04/04 12:38:25;;;;;;;2.28;2.08;;;;;;;;;;5066265;28;20409;-80
2023/04/04 12:40:51;;;;;;;2.30;2.08;;;;;;;;;;5067652;28;20392;-79
2023/04/04 12:43:19;;;;;;;4.65;2.42;;;;;;;;;;5061820;28;20849;-80
2023/04/04 12:45:45;;;;;;;2.70;2.10;;;;;;;;;;5070848;28;20378;-80
2023/04/04 12:48:16;;;;;;;2.70;2.25;;;;;;;;;;5068201;28;20376;-79
2023/04/04 12:50:56;;;;;;;2.65;2.33;;;;;;;;;;5071876;28;20883;-80
2023/04/04 12:53:29;;;;;;;3.85;2.40;;;;;;;;;;5068529;28;20726;-80
2023/04/04 12:55:56;;;;;;;3.00;2.22;;;;;;;;;;5071522;28;20384;-80
2023/04/04 12:58:24;;;;;;;2.33;2.13;;;;;;;;;;5077572;28;20498;-80
2023/04/04 13:00:51;;;;;;;2.33;2.00;;;;;;;;;;5071000;28;20831;-80
2023/04/04 13:03:19;;;;;;;2.20;2.00;;;;;;;;;;5058420;28;20734;-80
2023/04/04 13:05:46;;;;;;;3.20;1.98;;;;;;;;;;5066402;28;20380;-80
2023/04/04 13:08:12;;;;;;;3.08;2.28;;;;;;;;;;5070663;28;20384;-80
2023/04/04 13:10:58;;;;;;;3.55;2.22;;;;;;;;;;5071193;28;20384;-80
2023/04/04 13:13:50;;;;;;;2.22;2.03;;;;;;;;;;5065377;28;20380;-80
2023/04/04 13:16:38;;;;;;;3.27;2.20;;;;;;;;;;5046673;28;20419;-80
2023/04/04 13:19:04;;;;;;;3.30;2.45;;;;;;;;;;5070459;28;20376;-80
2023/04/04 13:21:31;;;;;;;2.57;2.37;;;;;;;;;;5071254;28;20411;-80
2023/04/04 13:23:57;;;;;;;2.78;2.50;;;;;;;;;;5075980;28;20382;-81
2023/04/04 13:26:23;;;;;;;3.10;2.40;;;;;;;;;;5071357;28;20458;-80
2023/04/04 13:28:49;;;;;;;3.88;2.38;;;;;;;;;;5071166;28;20383;-80
2023/04/04 13:31:15;;;;;;;2.67;2.20;;;;;;;;;;5071214;28;20403;-80
2023/04/04 13:33:41;;;;;;;3.13;2.20;;;;;;;;;;5071038;28;20909;-79
2023/04/04 13:36:07;;;;;;;3.03;2.70;;;;;;;;;;5082802;28;20388;-80
2023/04/04 13:38:33;;;;;;;3.90;2.70;;;;;;;;;;5071012;28;20375;-80
2023/04/04 13:41:00;;;;;;;3.45;2.53;;;;;;;;;;5068764;28;20371;-80
2023/04/04 13:43:26;;;;;;;3.00;2.30;;;;;;;;;;5070906;28;20471;-80
2023/04/04 13:45:54;;;;;;;3.75;2.58;;;;;;;;;;5070842;28;20384;-80
2023/04/04 13:48:20;;;;;;;3.05;2.50;;;;;;;;;;5071913;28;20414;-79
2023/04/04 13:50:50;;;;;;;2.85;2.63;;;;;;;;;;5074984;28;20414;-80
2023/04/04 13:53:16;;;;;;;2.50;2.10;;;;;;;;;;5074950;28;20383;-80
2023/04/04 13:55:42;;;;;;;2.70;2.28;;;;;;;;;;5074838;28;20717;-80
2023/04/04 13:58:08;;;;;;;2.78;2.28;;;;;;;;;;5073926;28;20418;-80
2023/04/04 14:00:34;;;;;;;3.83;2.40;;;;;;;;;;5074726;28;20391;-80
2023/04/04 14:03:00;;;;;;;2.95;2.35;;;;;;;;;;5074864;28;20428;-80
2023/04/04 14:05:26;;;;;;;2.20;2.00;;;;;;;;;;5073096;28;20375;-80
2023/04/04 14:07:52;;;;;;;2.80;2.33;;;;;;;;;;5074001;28;20387;-80
2023/04/04 14:10:18;;;;;;;3.00;2.30;;;;;;;;;;5074327;28;20862;-79
2023/04/04 14:12:45;;;;;;;3.10;2.25;;;;;;;;;;5056283;28;20384;-80
2023/04/04 14:15:11;;;;;;;2.30;2.05;;;;;;;;;;5074576;28;20466;-80
2023/04/04 14:17:37;;;;;;;3.00;2.25;;;;;;;;;;5074435;28;20872;-80
2023/04/04 14:20:04;;;;;;;3.10;2.33;;;;;;;;;;5074490;28;20379;-80
2023/04/04 14:22:30;;;;;;;2.50;2.20;;;;;;;;;;5077616;28;20475;-80
2023/04/04 14:24:56;;;;;;;4.57;2.50;;;;;;;;;;5083087;28;20441;-80
2023/04/04 14:27:22;;;;;;;2.58;2.30;;;;;;;;;;5074265;28;20845;-79
2023/04/04 14:29:48;;;;;;;2.88;2.60;;;;;;;;;;5074316;28;20380;-80
2023/04/04 14:32:14;;;;;;;3.72;2.40;;;;;;;;;;5073896;28;20411;-80
2023/04/04 14:34:40;;;;;;;3.60;2.70;;;;;;;;;;5074168;28;20433;-80
2023/04/04 14:37:07;;;;;;;3.70;2.45;;;;;;;;;;5078729;28;20422;-80
2023/04/04 14:39:33;;;;;;;3.77;3.00;;;;;;;;;;5074220;28;20382;-80
2023/04/04 14:41:59;;;;;;;2.95;2.60;;;;;;;;;;5073876;28;20379;-80